Time;durP1;ratioP1;P1;durP2;ratioP2;P2;SDS_P1;SDS_P2;PMS_P1;PMS_P2;Temp;Humidity;BMP_temperature;BMP_pressure;BME280_temperature;BME280_humidity;BME280_pressure;Samples;Min_cycle;Max_cycle;Signal;HPM_P1;HPM_P2
2024/02/29 00:01:27;;;;;;;24.80;9.45;;;2.80;96.20;;;;;;5014824;28;20124;-65
2024/02/29 00:03:53;;;;;;;20.77;9.65;;;2.80;96.00;;;;;;5013078;28;20096;-65
2024/02/29 00:06:18;;;;;;;18.83;8.07;;;2.90;95.90;;;;;;5007221;28;20087;-64
2024/02/29 00:08:43;;;;;;;21.63;8.75;;;2.90;95.70;;;;;;5009793;28;20037;-64
2024/02/29 00:11:09;;;;;;;25.27;10.00;;;2.90;95.60;;;;;;5009590;28;20073;-65
2024/02/29 00:13:34;;;;;;;27.33;10.98;;;2.90;95.50;;;;;;5012929;28;20048;-65
2024/02/29 00:16:00;;;;;;;22.45;9.23;;;3.00;95.30;;;;;;5011901;28;20481;-64
2024/02/29 00:18:25;;;;;;;20.50;8.50;;;3.00;95.20;;;;;;5011081;28;20052;-64
2024/02/29 00:20:51;;;;;;;19.67;7.80;;;3.00;94.80;;;;;;5007302;28;20775;-64
2024/02/29 00:23:16;;;;;;;19.27;8.85;;;3.10;94.30;;;;;;5019599;28;20148;-65
2024/02/29 00:25:42;;;;;;;18.45;9.02;;;3.10;94.10;;;;;;5008428;28;20566;-64
2024/02/29 00:28:07;;;;;;;22.02;9.15;;;3.10;94.10;;;;;;5010741;28;20033;-64
2024/02/29 00:30:33;;;;;;;21.13;9.38;;;3.10;94.00;;;;;;5006695;28;20073;-64
2024/02/29 00:32:58;;;;;;;21.80;8.85;;;3.20;93.70;;;;;;5015435;28;20048;-65
2024/02/29 00:35:24;;;;;;;26.70;10.30;;;3.20;93.50;;;;;;5014329;28;20527;-64
2024/02/29 00:37:49;;;;;;;18.63;9.02;;;3.20;93.30;;;;;;5022150;28;20033;-65
2024/02/29 00:40:15;;;;;;;18.27;8.30;;;3.20;93.20;;;;;;5019032;28;20037;-65
2024/02/29 00:42:40;;;;;;;18.55;8.20;;;3.20;93.10;;;;;;5016322;28;20049;-64
2024/02/29 00:45:06;;;;;;;17.80;8.45;;;3.30;92.80;;;;;;5020939;28;20074;-64
2024/02/29 00:47:31;;;;;;;18.60;8.25;;;3.30;92.80;;;;;;5021308;28;20124;-64
2024/02/29 00:49:57;;;;;;;17.58;7.93;;;3.30;92.60;;;;;;5009480;28;20049;-66
2024/02/29 00:52:22;;;;;;;22.58;8.43;;;3.30;92.20;;;;;;5012895;28;20076;-65
2024/02/29 00:54:48;;;;;;;22.27;9.65;;;3.30;92.20;;;;;;5015165;28;20087;-65
2024/02/29 00:57:13;;;;;;;19.95;8.98;;;3.30;92.50;;;;;;5012726;28;20037;-65
2024/02/29 00:59:39;;;;;;;17.85;8.88;;;3.30;92.50;;;;;;5018092;28;20033;-65
2024/02/29 01:02:04;;;;;;;20.05;8.80;;;3.30;92.40;;;;;;5017921;28;20033;-64
2024/02/29 01:04:30;;;;;;;18.65;9.20;;;3.30;92.50;;;;;;5017214;28;20084;-65
2024/02/29 01:06:56;;;;;;;15.73;7.95;;;3.30;92.30;;;;;;5014975;28;20041;-64
2024/02/29 01:09:27;;;;;;;18.27;8.15;;;3.30;92.20;;;;;;5013921;28;20025;-65
2024/02/29 01:11:55;;;;;;;22.05;9.23;;;3.40;92.00;;;;;;5014826;28;20200;-65
2024/02/29 01:14:21;;;;;;;19.35;8.43;;;3.40;91.90;;;;;;5020845;28;20093;-65
2024/02/29 01:16:46;;;;;;;20.63;8.25;;;3.30;91.90;;;;;;5019592;28;20077;-64
2024/02/29 01:19:12;;;;;;;18.80;7.82;;;3.40;91.90;;;;;;5019581;28;20083;-65
2024/02/29 01:21:38;;;;;;;18.13;8.23;;;3.40;91.80;;;;;;5019900;28;20363;-64
2024/02/29 01:24:05;;;;;;;17.13;7.72;;;3.40;91.80;;;;;;5017739;28;20074;-65
2024/02/29 01:26:32;;;;;;;18.38;8.23;;;3.40;91.80;;;;;;5015637;28;20107;-65
2024/02/29 01:28:58;;;;;;;21.20;8.55;;;3.40;91.80;;;;;;5023020;28;20124;-65
2024/02/29 01:31:23;;;;;;;19.63;7.88;;;3.40;91.60;;;;;;5010081;28;20104;-65
2024/02/29 01:33:49;;;;;;;17.25;7.15;;;3.40;91.70;;;;;;5014577;28;20100;-65
2024/02/29 01:36:14;;;;;;;17.20;8.25;;;3.40;91.60;;;;;;5022950;28;20034;-65
2024/02/29 01:38:40;;;;;;;17.23;7.75;;;3.40;91.40;;;;;;5011170;28;20121;-65
2024/02/29 01:41:05;;;;;;;19.00;8.02;;;3.30;91.50;;;;;;5011340;28;20088;-64
2024/02/29 01:43:31;;;;;;;20.48;8.43;;;3.30;91.50;;;;;;5011298;28;20026;-65
2024/02/29 01:46:11;;;;;;;17.55;6.72;;;3.30;91.50;;;;;;5010816;28;20130;-65
2024/02/29 01:48:36;;;;;;;17.20;7.43;;;3.30;91.30;;;;;;5015275;28;20038;-64
2024/02/29 01:51:03;;;;;;;14.25;7.25;;;3.40;91.20;;;;;;5011692;28;20424;-65
2024/02/29 01:53:29;;;;;;;19.88;7.18;;;3.30;91.40;;;;;;5011408;28;20033;-65
2024/02/29 01:55:54;;;;;;;18.77;8.32;;;3.30;91.20;;;;;;5010997;28;20076;-65
2024/02/29 01:58:20;;;;;;;20.48;8.43;;;3.30;91.10;;;;;;5015476;28;20059;-65
2024/02/29 02:00:46;;;;;;;17.33;8.45;;;3.30;91.10;;;;;;5008864;28;20088;-65
2024/02/29 02:03:11;;;;;;;16.85;6.80;;;3.30;91.00;;;;;;5014366;28;20182;-65
2024/02/29 02:05:37;;;;;;;18.85;8.15;;;3.30;91.10;;;;;;5010312;28;20448;-64
2024/02/29 02:08:03;;;;;;;18.13;7.55;;;3.30;91.10;;;;;;5007584;28;20036;-64
2024/02/29 02:10:29;;;;;;;16.42;7.20;;;3.30;90.90;;;;;;5010460;28;20398;-66
2024/02/29 02:12:54;;;;;;;18.05;8.38;;;3.30;90.80;;;;;;5016295;28;20098;-64
2024/02/29 02:15:20;;;;;;;15.73;8.02;;;3.20;91.00;;;;;;5018174;28;20381;-65
2024/02/29 02:17:47;;;;;;;18.92;8.88;;;3.20;91.00;;;;;;5019194;28;20361;-65
2024/02/29 02:20:17;;;;;;;16.58;6.93;;;3.20;91.00;;;;;;5013970;28;20379;-65
2024/02/29 02:22:42;;;;;;;17.55;8.02;;;3.10;91.20;;;;;;5010160;28;20477;-64
2024/02/29 02:25:08;;;;;;;17.02;8.15;;;3.10;91.30;;;;;;5008868;28;20059;-66
2024/02/29 02:27:33;;;;;;;18.25;7.97;;;3.10;91.10;;;;;;5010730;28;20038;-65
2024/02/29 02:29:59;;;;;;;13.88;7.13;;;3.00;91.40;;;;;;5017616;28;20137;-64
2024/02/29 02:32:24;;;;;;;17.88;7.95;;;2.90;91.60;;;;;;5012751;28;20030;-64
2024/02/29 02:34:50;;;;;;;16.80;6.80;;;2.90;91.70;;;;;;5017827;28;20486;-65
2024/02/29 02:37:15;;;;;;;17.88;7.22;;;2.90;91.70;;;;;;5012861;28;20030;-65
2024/02/29 02:39:41;;;;;;;18.00;8.32;;;2.80;91.80;;;;;;5010628;28;20123;-65
2024/02/29 02:42:06;;;;;;;15.57;7.35;;;2.80;91.60;;;;;;5011451;28;20486;-65
2024/02/29 02:44:32;;;;;;;18.65;7.53;;;2.80;91.60;;;;;;5021411;28;20060;-65
2024/02/29 02:46:57;;;;;;;18.83;8.73;;;2.80;91.70;;;;;;5021060;28;20033;-65
2024/02/29 02:49:23;;;;;;;16.13;7.80;;;2.70;91.70;;;;;;5016000;28;20054;-64
2024/02/29 02:51:48;;;;;;;16.77;7.82;;;2.70;91.80;;;;;;5016229;28;20177;-65
2024/02/29 02:54:14;;;;;;;18.80;8.82;;;2.60;91.90;;;;;;5017811;28;20037;-64
2024/02/29 02:56:39;;;;;;;16.75;7.32;;;2.60;91.80;;;;;;5017476;28;20455;-64
2024/02/29 02:59:05;;;;;;;19.55;8.00;;;2.40;91.90;;;;;;5015431;28;20021;-64
2024/02/29 03:01:30;;;;;;;17.42;8.27;;;2.40;92.00;;;;;;5014150;28;20041;-65
2024/02/29 03:03:56;;;;;;;19.30;8.10;;;2.30;92.30;;;;;;5012500;28;20087;-64
2024/02/29 03:06:21;;;;;;;16.33;7.85;;;2.30;92.40;;;;;;5015543;28;20351;-64
2024/02/29 03:08:46;;;;;;;19.92;8.43;;;2.20;92.60;;;;;;5010905;28;20159;-64
2024/02/29 03:11:12;;;;;;;19.27;8.05;;;2.10;92.70;;;;;;5013734;28;20038;-64
2024/02/29 03:13:38;;;;;;;17.65;7.97;;;2.10;92.70;;;;;;5012760;28;20072;-65
2024/02/29 03:16:04;;;;;;;16.42;7.80;;;2.10;92.70;;;;;;5010818;28;20038;-64
2024/02/29 03:18:29;;;;;;;15.48;7.35;;;2.00;92.80;;;;;;5016755;28;20489;-64
2024/02/29 03:20:54;;;;;;;14.70;7.35;;;2.00;93.00;;;;;;5013576;28;20115;-65
2024/02/29 03:23:20;;;;;;;18.90;7.38;;;1.90;93.10;;;;;;5009593;28;20038;-65
2024/02/29 03:25:46;;;;;;;19.23;7.82;;;1.90;93.10;;;;;;5011899;28;20043;-65
2024/02/29 03:28:12;;;;;;;18.95;8.25;;;1.80;93.20;;;;;;5017870;28;20026;-64
2024/02/29 03:30:37;;;;;;;16.65;7.15;;;1.80;93.30;;;;;;5015819;28;20069;-64
2024/02/29 03:33:03;;;;;;;19.30;8.77;;;1.80;93.30;;;;;;5012918;28;20049;-64
2024/02/29 03:35:28;;;;;;;15.88;7.80;;;1.80;93.40;;;;;;5011949;28;20503;-64
2024/02/29 03:37:54;;;;;;;20.35;8.15;;;1.80;93.40;;;;;;5007356;28;20052;-64
2024/02/29 03:40:19;;;;;;;19.23;8.98;;;1.80;93.40;;;;;;5009564;28;20317;-66
2024/02/29 03:42:45;;;;;;;16.90;7.63;;;1.70;93.50;;;;;;5016306;28;20060;-65
2024/02/29 03:45:10;;;;;;;19.25;8.60;;;1.70;93.50;;;;;;5013524;28;20056;-64
2024/02/29 03:47:36;;;;;;;14.65;7.20;;;1.70;93.70;;;;;;5013264;28;20116;-65
2024/02/29 03:50:01;;;;;;;16.42;8.13;;;1.60;93.60;;;;;;5016196;28;20038;-65
2024/02/29 03:52:27;;;;;;;18.20;7.47;;;1.60;93.70;;;;;;5016400;28;20053;-65
2024/02/29 03:54:52;;;;;;;15.48;7.97;;;1.60;93.80;;;;;;5010344;28;20033;-65
2024/02/29 03:57:18;;;;;;;18.55;8.63;;;1.60;93.90;;;;;;5006648;28;20078;-65
2024/02/29 03:59:47;;;;;;;20.02;8.15;;;1.70;93.90;;;;;;5010820;28;20044;-65
2024/02/29 04:02:12;;;;;;;21.58;8.45;;;1.60;93.60;;;;;;5012933;28;20318;-65
2024/02/29 04:04:39;;;;;;;16.23;7.25;;;1.60;93.90;;;;;;5014021;28;20038;-64
2024/02/29 04:07:05;;;;;;;15.77;7.53;;;1.50;93.90;;;;;;5014051;28;20064;-64
2024/02/29 04:09:30;;;;;;;15.82;6.88;;;1.50;94.00;;;;;;5015390;28;20061;-64
2024/02/29 04:11:56;;;;;;;20.48;8.77;;;1.60;94.00;;;;;;5008925;28;20427;-65
2024/02/29 04:14:22;;;;;;;17.75;7.28;;;1.50;93.80;;;;;;5028155;28;20073;-64
2024/02/29 04:16:47;;;;;;;16.33;6.75;;;1.60;94.00;;;;;;5011050;28;20068;-65
2024/02/29 04:19:13;;;;;;;16.08;7.25;;;1.60;93.90;;;;;;5014132;28;20029;-65
2024/02/29 04:21:44;;;;;;;14.98;6.90;;;1.60;93.90;;;;;;5008726;28;20048;-65
2024/02/29 04:24:09;;;;;;;14.63;6.90;;;1.50;93.80;;;;;;5016759;28;20469;-65
2024/02/29 04:26:35;;;;;;;16.63;6.82;;;1.50;93.90;;;;;;5010338;28;20057;-65
2024/02/29 04:29:00;;;;;;;17.88;8.40;;;1.50;93.90;;;;;;5011621;28;20112;-66
2024/02/29 04:31:26;;;;;;;17.10;6.72;;;1.60;93.90;;;;;;5007772;28;20053;-64
2024/02/29 04:33:51;;;;;;;18.70;7.95;;;1.60;93.50;;;;;;5011593;28;20052;-65
2024/02/29 04:36:17;;;;;;;15.85;6.53;;;1.60;93.80;;;;;;5007485;28;20076;-65
2024/02/29 04:38:42;;;;;;;15.52;7.00;;;1.60;93.40;;;;;;5015467;28;20429;-65
2024/02/29 04:41:08;;;;;;;19.25;6.85;;;1.60;93.30;;;;;;5013309;28;20547;-65
2024/02/29 04:43:34;;;;;;;20.27;9.02;;;1.60;93.60;;;;;;5010692;28;20412;-64
2024/02/29 04:46:01;;;;;;;17.67;7.60;;;1.60;93.40;;;;;;5018340;28;20066;-65
2024/02/29 04:48:27;;;;;;;16.67;7.13;;;1.60;93.60;;;;;;5016618;28;20128;-65
2024/02/29 04:50:52;;;;;;;19.25;8.20;;;1.70;93.20;;;;;;5014206;28;20466;-65
2024/02/29 04:53:18;;;;;;;15.45;7.88;;;1.60;93.30;;;;;;5014473;28;20069;-65
2024/02/29 04:55:44;;;;;;;16.27;7.93;;;1.70;93.10;;;;;;5015460;28;20030;-65
2024/02/29 04:58:10;;;;;;;12.70;6.05;;;1.60;93.30;;;;;;5015344;28;20516;-64
2024/02/29 05:00:36;;;;;;;18.02;7.38;;;1.60;93.40;;;;;;5018815;28;20030;-64
2024/02/29 05:03:01;;;;;;;16.33;6.85;;;1.60;93.50;;;;;;5015346;28;20112;-65
2024/02/29 05:05:27;;;;;;;14.50;6.38;;;1.70;93.30;;;;;;5011264;28;20109;-64
2024/02/29 05:07:54;;;;;;;18.13;7.32;;;1.60;93.30;;;;;;5021718;28;20101;-64
2024/02/29 05:10:19;;;;;;;15.32;6.60;;;1.60;93.30;;;;;;5014691;28;20427;-65
2024/02/29 05:12:50;;;;;;;15.07;6.88;;;1.60;93.30;;;;;;5019256;28;20084;-64
2024/02/29 05:15:17;;;;;;;13.02;6.40;;;1.60;93.40;;;;;;5014954;28;20106;-65
2024/02/29 05:17:42;;;;;;;13.48;6.45;;;1.70;93.40;;;;;;5012681;28;20125;-65
2024/02/29 05:20:08;;;;;;;20.13;7.57;;;1.60;93.40;;;;;;5016730;28;20071;-66
2024/02/29 05:22:34;;;;;;;17.25;8.07;;;1.80;92.90;;;;;;5011887;28;20395;-65
2024/02/29 05:24:59;;;;;;;17.13;7.15;;;1.70;93.10;;;;;;5021336;28;20037;-65
2024/02/29 05:27:29;;;;;;;15.15;7.18;;;1.70;93.30;;;;;;5019504;28;20037;-64
2024/02/29 05:29:56;;;;;;;15.65;6.75;;;1.80;93.00;;;;;;5014369;28;20030;-63
2024/02/29 05:32:22;;;;;;;14.55;6.18;;;1.70;92.90;;;;;;5013104;28;20058;-63
2024/02/29 05:34:47;;;;;;;15.77;6.70;;;1.60;93.20;;;;;;5015264;28;20336;-63
2024/02/29 05:37:13;;;;;;;17.20;6.82;;;1.60;93.50;;;;;;5013348;28;20034;-64
2024/02/29 05:39:38;;;;;;;16.42;7.13;;;1.70;93.50;;;;;;5019639;28;20056;-64
2024/02/29 05:42:04;;;;;;;14.35;6.15;;;1.60;93.60;;;;;;5014951;28;20057;-63
2024/02/29 05:44:30;;;;;;;14.85;7.05;;;1.60;93.50;;;;;;5012620;28;20419;-64
2024/02/29 05:46:57;;;;;;;14.32;7.38;;;1.60;93.50;;;;;;5017029;28;20034;-64
2024/02/29 05:49:22;;;;;;;15.93;7.78;;;1.60;93.60;;;;;;5018262;28;20056;-64
2024/02/29 05:51:48;;;;;;;14.25;6.65;;;1.60;93.70;;;;;;5021812;28;20121;-63
2024/02/29 05:54:13;;;;;;;16.40;6.32;;;1.60;93.50;;;;;;5014905;28;20034;-63
2024/02/29 05:56:39;;;;;;;15.80;7.50;;;1.60;93.60;;;;;;5018500;28;20065;-64
2024/02/29 05:59:05;;;;;;;15.55;7.47;;;1.70;93.40;;;;;;5020852;28;20041;-63
2024/02/29 06:01:31;;;;;;;15.48;7.32;;;1.70;93.40;;;;;;5013767;28;20116;-63
2024/02/29 06:03:56;;;;;;;15.35;6.78;;;1.70;93.40;;;;;;5018932;28;20120;-64
2024/02/29 06:06:22;;;;;;;20.20;7.95;;;1.80;93.40;;;;;;5019738;28;20051;-65
2024/02/29 06:08:47;;;;;;;16.52;7.18;;;1.70;93.20;;;;;;5013448;28;20133;-64
2024/02/29 06:11:13;;;;;;;17.17;7.93;;;1.80;93.20;;;;;;5015550;28;20450;-65
2024/02/29 06:13:43;;;;;;;17.10;7.57;;;1.70;93.40;;;;;;5014884;28;20083;-63
2024/02/29 06:16:12;;;;;;;15.48;7.72;;;1.80;93.10;;;;;;5014012;28;20459;-64
2024/02/29 06:18:37;;;;;;;11.88;5.85;;;1.80;93.20;;;;;;5022635;28;20030;-63
2024/02/29 06:21:04;;;;;;;14.60;7.47;;;1.80;93.10;;;;;;5017295;28;20133;-63
2024/02/29 06:23:29;;;;;;;16.23;7.28;;;1.80;92.90;;;;;;5019064;28;20033;-64
2024/02/29 06:25:55;;;;;;;19.55;6.97;;;1.80;93.10;;;;;;5009208;28;20042;-63
2024/02/29 06:28:20;;;;;;;15.23;6.60;;;1.80;93.20;;;;;;5017301;28;20382;-64
2024/02/29 06:30:46;;;;;;;15.77;6.43;;;1.90;92.90;;;;;;5012887;28;20036;-63
2024/02/29 06:33:11;;;;;;;13.82;6.78;;;1.90;92.90;;;;;;5010379;28;20041;-64
2024/02/29 06:35:36;;;;;;;20.77;7.65;;;1.80;93.00;;;;;;5016856;28;20461;-63
2024/02/29 06:38:02;;;;;;;15.38;6.80;;;1.90;93.00;;;;;;5007747;28;20208;-64
2024/02/29 06:40:27;;;;;;;15.18;7.15;;;1.90;92.80;;;;;;5012171;28;20037;-64
2024/02/29 06:42:53;;;;;;;15.00;6.03;;;1.90;92.80;;;;;;5016107;28;20105;-63
2024/02/29 06:45:18;;;;;;;14.48;6.38;;;2.00;92.50;;;;;;5014947;28;20175;-67
2024/02/29 06:47:44;;;;;;;16.02;7.03;;;2.10;92.40;;;;;;5012720;28;20026;-63
2024/02/29 06:50:11;;;;;;;17.02;8.02;;;2.10;92.20;;;;;;5010669;28;20022;-63
2024/02/29 06:52:36;;;;;;;13.50;6.53;;;2.20;92.10;;;;;;5014366;28;20401;-63
2024/02/29 06:55:06;;;;;;;14.07;6.65;;;2.20;91.90;;;;;;5017316;28;20030;-63
2024/02/29 06:57:32;;;;;;;10.80;5.32;;;2.30;91.70;;;;;;5009299;28;20556;-64
2024/02/29 06:59:58;;;;;;;15.23;5.80;;;2.40;91.30;;;;;;5011206;28;20136;-64
2024/02/29 07:02:23;;;;;;;14.98;6.63;;;2.40;91.30;;;;;;5007861;28;20048;-63
2024/02/29 07:04:49;;;;;;;13.38;6.28;;;2.50;91.10;;;;;;5012248;28;20045;-64
2024/02/29 07:07:14;;;;;;;13.02;5.63;;;2.60;90.90;;;;;;5018201;28;20507;-64
2024/02/29 07:09:42;;;;;;;15.13;6.78;;;2.60;90.90;;;;;;5011006;28;20058;-64
2024/02/29 07:12:07;;;;;;;13.45;6.65;;;2.70;90.30;;;;;;5019566;28;20102;-65
2024/02/29 07:14:33;;;;;;;13.38;5.63;;;2.80;90.20;;;;;;5012348;28;20030;-63
2024/02/29 07:16:59;;;;;;;11.07;5.30;;;2.90;89.70;;;;;;5020333;28;20461;-64
2024/02/29 07:19:25;;;;;;;12.77;6.40;;;3.00;90.10;;;;;;5022251;28;20112;-63
2024/02/29 07:21:52;;;;;;;13.75;5.93;;;3.00;89.50;;;;;;5016020;28;20143;-63
2024/02/29 07:24:17;;;;;;;15.40;5.93;;;3.00;89.70;;;;;;5017956;28;20036;-63
2024/02/29 07:26:43;;;;;;;13.93;5.65;;;3.10;88.80;;;;;;5014050;28;20394;-64
2024/02/29 07:29:09;;;;;;;11.65;4.88;;;3.20;89.30;;;;;;5020266;28;20427;-63
2024/02/29 07:31:34;;;;;;;12.18;5.53;;;3.20;88.80;;;;;;5009787;28;20120;-63
2024/02/29 07:34:00;;;;;;;12.82;4.90;;;3.30;88.10;;;;;;5010492;28;20041;-64
2024/02/29 07:36:25;;;;;;;11.68;5.53;;;3.50;88.20;;;;;;5007769;28;20041;-65
2024/02/29 07:38:51;;;;;;;10.10;4.43;;;3.60;88.40;;;;;;5011636;28;20363;-64
2024/02/29 07:41:17;;;;;;;10.38;4.70;;;3.70;87.30;;;;;;5009463;28;20369;-64
2024/02/29 07:43:42;;;;;;;10.48;4.22;;;3.80;87.10;;;;;;5025327;28;20065;-63
2024/02/29 07:46:08;;;;;;;9.45;3.78;;;3.90;86.20;;;;;;5016440;28;20128;-64
2024/02/29 07:48:34;;;;;;;9.88;4.72;;;4.10;86.40;;;;;;5017334;28;20103;-64
2024/02/29 07:51:00;;;;;;;8.95;4.72;;;4.10;85.50;;;;;;5007104;28;20193;-64
2024/02/29 07:53:26;;;;;;;10.50;4.80;;;4.20;85.20;;;;;;5009574;28;20067;-64
2024/02/29 07:55:51;;;;;;;9.75;4.63;;;4.30;85.50;;;;;;5022620;28;20121;-64
2024/02/29 07:58:18;;;;;;;8.73;3.80;;;4.40;84.80;;;;;;5022649;28;20041;-65
2024/02/29 08:00:44;;;;;;;10.10;4.50;;;4.50;84.80;;;;;;5019371;28;20303;-64
2024/02/29 08:03:09;;;;;;;11.50;4.22;;;4.60;84.60;;;;;;5021753;28;20125;-63
2024/02/29 08:05:35;;;;;;;7.15;4.25;;;4.70;83.80;;;;;;5023215;28;20103;-64
2024/02/29 08:08:00;;;;;;;8.25;4.25;;;4.90;84.40;;;;;;5017207;28;20527;-64
2024/02/29 08:10:26;;;;;;;9.30;4.30;;;5.00;82.90;;;;;;5014508;28;20026;-64
2024/02/29 08:12:51;;;;;;;8.85;3.63;;;5.10;83.00;;;;;;5014144;28;20025;-64
2024/02/29 08:15:17;;;;;;;8.57;3.95;;;5.20;82.70;;;;;;5012617;28;20045;-63
2024/02/29 08:17:42;;;;;;;6.22;3.33;;;5.30;82.50;;;;;;5006699;28;20030;-64
2024/02/29 08:20:10;;;;;;;9.57;3.80;;;5.50;81.90;;;;;;5020233;28;20128;-65
2024/02/29 08:22:36;;;;;;;10.57;4.40;;;5.60;80.50;;;;;;5016682;28;20084;-64
2024/02/29 08:25:01;;;;;;;8.52;3.65;;;5.60;80.20;;;;;;5011085;28;20042;-64
2024/02/29 08:27:27;;;;;;;5.55;3.15;;;5.70;79.70;;;;;;5010531;28;20088;-65
2024/02/29 08:29:52;;;;;;;8.55;3.90;;;5.80;78.70;;;;;;5016942;28;20034;-64
2024/02/29 08:32:18;;;;;;;8.80;3.78;;;6.00;78.80;;;;;;5020083;28;20377;-64
2024/02/29 08:34:44;;;;;;;5.88;3.00;;;6.10;77.80;;;;;;5011722;28;20042;-64
2024/02/29 08:37:10;;;;;;;5.85;3.05;;;6.20;78.40;;;;;;5006012;28;20038;-65
2024/02/29 08:39:36;;;;;;;7.25;3.78;;;6.40;78.00;;;;;;5023475;28;20026;-64
2024/02/29 08:42:01;;;;;;;6.38;2.80;;;6.50;77.10;;;;;;5014728;28;20053;-64
2024/02/29 08:44:27;;;;;;;6.55;3.72;;;6.70;78.10;;;;;;5025304;28;20030;-64
2024/02/29 08:46:52;;;;;;;8.48;3.75;;;6.80;76.50;;;;;;5014664;28;20072;-64
2024/02/29 08:49:18;;;;;;;8.13;3.80;;;7.00;75.00;;;;;;5016388;28;20065;-64
2024/02/29 08:51:43;;;;;;;7.68;3.38;;;7.30;76.10;;;;;;5006059;28;20040;-64
2024/02/29 08:54:09;;;;;;;6.97;2.92;;;7.20;75.60;;;;;;5016319;28;20135;-64
2024/02/29 08:56:34;;;;;;;6.40;3.38;;;7.20;74.00;;;;;;5006818;28;20064;-64
2024/02/29 08:59:00;;;;;;;6.50;3.22;;;7.10;73.00;;;;;;5008070;28;20417;-64
2024/02/29 09:01:26;;;;;;;5.47;2.70;;;7.30;73.90;;;;;;5016709;28;20421;-64
2024/02/29 09:03:53;;;;;;;5.30;2.88;;;7.30;72.90;;;;;;5017796;28;20040;-64
2024/02/29 09:06:18;;;;;;;5.72;2.53;;;7.30;71.70;;;;;;5013527;28;20593;-64
2024/02/29 09:08:44;;;;;;;6.72;2.70;;;7.40;70.80;;;;;;5017893;28;20136;-64
2024/02/29 09:11:09;;;;;;;6.97;2.97;;;7.50;71.40;;;;;;5008337;28;20500;-66
2024/02/29 09:13:35;;;;;;;7.68;3.22;;;7.60;70.10;;;;;;5006025;28;20468;-64
2024/02/29 09:16:00;;;;;;;6.82;3.38;;;7.80;71.20;;;;;;5009420;28;20100;-64
2024/02/29 09:18:26;;;;;;;6.15;2.92;;;7.90;69.50;;;;;;5014270;28;20466;-64
2024/02/29 09:20:51;;;;;;;5.32;2.60;;;8.10;69.60;;;;;;5013377;28;20126;-64
2024/02/29 09:23:17;;;;;;;5.57;2.90;;;8.30;70.10;;;;;;5016998;28;20561;-64
2024/02/29 09:25:42;;;;;;;5.90;2.58;;;8.20;69.10;;;;;;5011276;28;20073;-65
2024/02/29 09:28:08;;;;;;;6.82;3.25;;;8.20;68.70;;;;;;5013173;28;20041;-64
2024/02/29 09:30:33;;;;;;;5.07;2.72;;;8.40;69.60;;;;;;5022868;28;20489;-65
2024/02/29 09:32:59;;;;;;;6.90;3.00;;;8.40;68.20;;;;;;5012334;28;20049;-64
2024/02/29 09:35:25;;;;;;;8.63;3.15;;;8.40;68.40;;;;;;5011442;28;20113;-64
2024/02/29 09:37:50;;;;;;;5.65;2.92;;;8.50;67.60;;;;;;5009907;28;20038;-64
2024/02/29 09:40:20;;;;;;;6.15;2.40;;;8.70;67.80;;;;;;5015118;28;20469;-64
2024/02/29 09:42:46;;;;;;;5.38;2.90;;;8.50;66.40;;;;;;5019413;28;20046;-64
2024/02/29 09:45:14;;;;;;;6.03;2.97;;;8.60;66.80;;;;;;5019353;28;20033;-64
2024/02/29 09:47:41;;;;;;;4.85;2.60;;;8.80;67.90;;;;;;5010552;28;20034;-64
2024/02/29 09:50:11;;;;;;;6.35;2.67;;;8.80;68.30;;;;;;5019168;28;20033;-64
2024/02/29 09:52:40;;;;;;;5.17;2.13;;;8.80;66.10;;;;;;5018408;28;20447;-63
2024/02/29 09:55:12;;;;;;;5.07;2.80;;;8.70;66.90;;;;;;5011136;28;20124;-64
2024/02/29 09:57:37;;;;;;;5.55;2.65;;;8.80;67.00;;;;;;5015639;28;20362;-64
2024/02/29 10:00:03;;;;;;;6.07;2.85;;;9.00;66.60;;;;;;5010530;28;20082;-62
2024/02/29 10:02:29;;;;;;;5.38;2.55;;;9.20;66.20;;;;;;5009273;28;20026;-63
2024/02/29 10:04:55;;;;;;;4.65;2.28;;;9.40;66.50;;;;;;5009780;28;20115;-62
2024/02/29 10:07:20;;;;;;;5.50;2.50;;;9.60;65.00;;;;;;5010069;28;20030;-63
2024/02/29 10:09:45;;;;;;;5.28;2.33;;;9.80;64.90;;;;;;5011381;28;20162;-63
2024/02/29 10:12:18;;;;;;;5.88;2.60;;;9.70;63.50;;;;;;5012433;28;20053;-63
2024/02/29 10:14:45;;;;;;;5.78;2.60;;;9.70;63.70;;;;;;5015606;28;21011;-63
2024/02/29 10:17:11;;;;;;;4.85;2.35;;;9.80;62.90;;;;;;5013205;28;20152;-64
2024/02/29 10:19:38;;;;;;;6.35;2.63;;;9.60;63.30;;;;;;5025490;28;20562;-63
2024/02/29 10:22:03;;;;;;;6.07;2.70;;;10.00;62.60;;;;;;5015753;28;20037;-63
2024/02/29 10:24:30;;;;;;;4.22;2.15;;;10.00;62.40;;;;;;5019787;28;20051;-63
2024/02/29 10:27:04;;;;;;;6.10;2.45;;;9.70;60.10;;;;;;5019000;28;20143;-64
2024/02/29 10:29:30;;;;;;;5.63;2.90;;;10.00;61.60;;;;;;5016421;28;20056;-63
2024/02/29 10:31:58;;;;;;;5.13;2.50;;;10.30;62.30;;;;;;5012951;28;20033;-63
2024/02/29 10:34:24;;;;;;;6.03;2.67;;;10.30;61.70;;;;;;5015056;28;20034;-63
2024/02/29 10:36:50;;;;;;;6.95;2.85;;;10.60;62.60;;;;;;5014739;28;20346;-63
2024/02/29 10:39:15;;;;;;;5.03;2.28;;;10.70;62.10;;;;;;5020011;28;20052;-62
2024/02/29 10:41:47;;;;;;;25.75;7.28;;;10.70;61.10;;;;;;5019109;28;20160;-63
2024/02/29 10:44:16;;;;;;;23.90;7.90;;;10.70;61.30;;;;;;5023596;28;20070;-63
2024/02/29 10:46:43;;;;;;;22.92;7.47;;;10.80;61.10;;;;;;5013998;28;20034;-63
2024/02/29 10:49:30;;;;;;;19.10;6.55;;;10.90;61.40;;;;;;5010557;28;20050;-64
2024/02/29 10:52:09;;;;;;;11.48;4.13;;;11.10;61.00;;;;;;5020136;28;20454;-63
2024/02/29 10:54:40;;;;;;;9.77;4.28;;;11.00;59.10;;;;;;5019544;28;20102;-64
2024/02/29 10:57:14;;;;;;;14.82;5.80;;;10.90;59.80;;;;;;5017551;28;20382;-64
2024/02/29 10:59:45;;;;;;;9.80;4.15;;;11.20;59.60;;;;;;5020663;28;20045;-63
2024/02/29 11:02:10;;;;;;;6.50;3.20;;;11.50;59.10;;;;;;5014307;28;20120;-63
2024/02/29 11:04:36;;;;;;;5.15;2.70;;;11.50;59.30;;;;;;5012237;28;20407;-63
2024/02/29 11:07:03;;;;;;;6.57;3.00;;;11.60;58.30;;;;;;5018791;28;20052;-64
2024/02/29 11:09:31;;;;;;;7.32;3.50;;;11.60;58.00;;;;;;5016345;28;20117;-63
2024/02/29 11:12:16;;;;;;;5.93;2.30;;;11.80;58.30;;;;;;5018352;28;20095;-65
2024/02/29 11:14:47;;;;;;;6.68;2.45;;;11.80;58.20;;;;;;5019402;28;20144;-63
2024/02/29 11:17:14;;;;;;;7.47;2.67;;;12.00;57.80;;;;;;5018186;28;20112;-63
2024/02/29 11:19:39;;;;;;;6.13;3.03;;;12.00;56.80;;;;;;5019506;28;20419;-63
2024/02/29 11:22:10;;;;;;;5.05;2.17;;;12.00;57.30;;;;;;5017676;28;20053;-63
2024/02/29 11:24:36;;;;;;;4.65;2.25;;;11.90;56.80;;;;;;5019798;28;20073;-63
2024/02/29 11:27:08;;;;;;;5.97;2.92;;;12.10;56.80;;;;;;5017266;28;20084;-64
2024/02/29 11:29:34;;;;;;;4.95;2.22;;;12.60;57.30;;;;;;5015754;28;20033;-65
2024/02/29 11:31:59;;;;;;;4.93;2.50;;;12.40;55.70;;;;;;5015402;28;20044;-63
2024/02/29 11:34:25;;;;;;;4.40;1.88;;;12.90;57.00;;;;;;5020178;28;20439;-64
2024/02/29 11:36:51;;;;;;;3.63;1.83;;;13.10;56.20;;;;;;5011600;28;20033;-64
2024/02/29 11:39:23;;;;;;;4.10;1.70;;;12.60;56.10;;;;;;5020146;28;20531;-65
2024/02/29 11:41:50;;;;;;;4.60;2.05;;;12.80;55.80;;;;;;5020480;28;20358;-64
2024/02/29 11:44:15;;;;;;;5.10;2.03;;;13.00;56.10;;;;;;5014752;28;20509;-65
2024/02/29 11:46:49;;;;;;;3.65;1.77;;;13.00;54.70;;;;;;5019497;28;20034;-64
2024/02/29 11:49:15;;;;;;;4.25;2.13;;;13.00;55.20;;;;;;5012876;28;20026;-64
2024/02/29 11:51:41;;;;;;;5.82;2.25;;;12.60;55.10;;;;;;5009149;28;20115;-64
2024/02/29 11:54:07;;;;;;;5.25;1.80;;;13.00;56.00;;;;;;5015010;28;20045;-64
2024/02/29 11:56:32;;;;;;;4.68;2.25;;;13.10;55.20;;;;;;5010100;28;20030;-64
2024/02/29 11:59:02;;;;;;;4.00;1.88;;;13.10;53.90;;;;;;5014495;28;20100;-64
2024/02/29 12:01:28;;;;;;;5.45;1.90;;;12.90;53.70;;;;;;5011290;28;20056;-64
2024/02/29 12:03:54;;;;;;;5.45;2.30;;;13.00;55.20;;;;;;5017969;28;20029;-63
2024/02/29 12:06:20;;;;;;;4.53;2.10;;;12.80;54.30;;;;;;5010444;28;20049;-65
2024/02/29 12:08:46;;;;;;;5.72;2.00;;;12.80;55.40;;;;;;5011954;28;20450;-63
2024/02/29 12:11:12;;;;;;;5.90;1.98;;;13.00;54.70;;;;;;5013863;28;20025;-64
2024/02/29 12:13:38;;;;;;;3.83;1.92;;;12.80;54.80;;;;;;5016722;28;20465;-64
2024/02/29 12:16:05;;;;;;;4.80;1.83;;;13.00;54.60;;;;;;5009687;28;20434;-64
2024/02/29 12:18:33;;;;;;;3.58;1.58;;;13.30;55.00;;;;;;5012909;28;20409;-65
2024/02/29 12:20:58;;;;;;;4.50;1.98;;;13.00;53.10;;;;;;5019585;28;20108;-64
2024/02/29 12:23:24;;;;;;;5.13;2.10;;;12.80;54.40;;;;;;5010353;28;20049;-63
2024/02/29 12:25:49;;;;;;;5.07;2.03;;;13.30;55.30;;;;;;5015904;28;20045;-64
2024/02/29 12:28:15;;;;;;;4.50;2.05;;;13.30;54.70;;;;;;5013569;28;20061;-63
2024/02/29 12:30:41;;;;;;;6.05;2.15;;;13.30;53.00;;;;;;5018482;28;20089;-64
2024/02/29 12:33:08;;;;;;;5.00;2.42;;;13.60;53.00;;;;;;5018082;28;20066;-64
2024/02/29 12:35:33;;;;;;;5.82;1.88;;;13.90;54.30;;;;;;5013398;28;20042;-65
2024/02/29 12:38:03;;;;;;;6.65;2.30;;;14.10;53.00;;;;;;5016145;28;20140;-64
2024/02/29 12:40:29;;;;;;;3.97;2.05;;;14.00;52.50;;;;;;5009790;28;20038;-64
2024/02/29 12:42:57;;;;;;;4.60;2.42;;;13.70;52.40;;;;;;5019402;28;20143;-65